sensor_id;sensor_type;location;lat;lon;timestamp;pressure;altitude;pressure_sealevel;temperature;humidity
63399;BME280;49533;-34.520;150.798;2022-08-01T00:01:38;100504.59;;;14.75;61.56
63399;BME280;49533;-34.520;150.798;2022-08-01T00:04:05;100510.06;;;14.75;61.67
63399;BME280;49533;-34.520;150.798;2022-08-01T00:06:32;100516.16;;;14.72;61.81
63399;BME280;49533;-34.520;150.798;2022-08-01T00:08:59;100505.13;;;14.69;61.71
63399;BME280;49533;-34.520;150.798;2022-08-01T00:11:26;100513.84;;;14.62;61.78
63399;BME280;49533;-34.520;150.798;2022-08-01T00:13:53;100502.09;;;14.62;62.25
63399;BME280;49533;-34.520;150.798;2022-08-01T00:16:20;100510.19;;;14.58;61.73
63399;BME280;49533;-34.520;150.798;2022-08-01T00:18:51;100498.47;;;14.57;61.82
63399;BME280;49533;-34.520;150.798;2022-08-01T00:21:18;100503.78;;;14.54;61.68
63399;BME280;49533;-34.520;150.798;2022-08-01T00:23:46;100499.47;;;14.53;61.78
63399;BME280;49533;-34.520;150.798;2022-08-01T00:26:13;100501.38;;;14.52;61.69
63399;BME280;49533;-34.520;150.798;2022-08-01T00:28:41;100494.63;;;14.50;61.74
63399;BME280;49533;-34.520;150.798;2022-08-01T00:31:08;100498.47;;;14.49;61.52
63399;BME280;49533;-34.520;150.798;2022-08-01T00:33:35;100499.63;;;14.48;61.55
63399;BME280;49533;-34.520;150.798;2022-08-01T00:36:02;100507.47;;;14.49;61.02
63399;BME280;49533;-34.520;150.798;2022-08-01T00:38:29;100498.84;;;14.47;60.96
63399;BME280;49533;-34.520;150.798;2022-08-01T00:40:56;100508.81;;;14.43;60.21
63399;BME280;49533;-34.520;150.798;2022-08-01T00:43:23;100509.97;;;14.42;60.29
63399;BME280;49533;-34.520;150.798;2022-08-01T00:45:50;100507.88;;;14.39;59.72
63399;BME280;49533;-34.520;150.798;2022-08-01T00:48:17;100507.44;;;14.37;59.44
63399;BME280;49533;-34.520;150.798;2022-08-01T00:50:44;100510.81;;;14.34;59.02
63399;BME280;49533;-34.520;150.798;2022-08-01T00:53:12;100506.28;;;14.38;58.69
63399;BME280;49533;-34.520;150.798;2022-08-01T00:55:39;100515.09;;;14.44;58.32
63399;BME280;49533;-34.520;150.798;2022-08-01T00:58:06;100508.63;;;14.48;57.88
63399;BME280;49533;-34.520;150.798;2022-08-01T01:00:35;100501.03;;;14.54;57.58
63399;BME280;49533;-34.520;150.798;2022-08-01T01:03:03;100512.25;;;14.61;57.41
63399;BME280;49533;-34.520;150.798;2022-08-01T01:05:33;100516.63;;;14.74;56.86
63399;BME280;49533;-34.520;150.798;2022-08-01T01:08:14;100515.97;;;14.77;56.39
63399;BME280;49533;-34.520;150.798;2022-08-01T01:11:11;100521.91;;;14.79;56.40
63399;BME280;49533;-34.520;150.798;2022-08-01T01:13:49;100518.84;;;14.81;56.13
63399;BME280;49533;-34.520;150.798;2022-08-01T01:16:20;100526.25;;;14.81;56.05
63399;BME280;49533;-34.520;150.798;2022-08-01T01:18:52;100517.22;;;14.80;56.37
63399;BME280;49533;-34.520;150.798;2022-08-01T01:29:41;100511.38;;;14.69;54.71
63399;BME280;49533;-34.520;150.798;2022-08-01T01:32:20;100514.47;;;14.68;54.96
63399;BME280;49533;-34.520;150.798;2022-08-01T01:34:51;100516.72;;;14.66;54.63
63399;BME280;49533;-34.520;150.798;2022-08-01T01:37:23;100505.91;;;14.69;53.98
63399;BME280;49533;-34.520;150.798;2022-08-01T01:39:52;100507.31;;;14.75;52.98
63399;BME280;49533;-34.520;150.798;2022-08-01T01:42:21;100497.97;;;14.76;52.51
63399;BME280;49533;-34.520;150.798;2022-08-01T01:44:51;100510.75;;;14.85;51.61
63399;BME280;49533;-34.520;150.798;2022-08-01T01:47:20;100490.81;;;14.84;51.36
63399;BME280;49533;-34.520;150.798;2022-08-01T01:49:50;100506.91;;;14.86;50.99
63399;BME280;49533;-34.520;150.798;2022-08-01T01:52:18;100497.22;;;14.88;50.94
63399;BME280;49533;-34.520;150.798;2022-08-01T01:54:50;100507.81;;;14.90;50.66
63399;BME280;49533;-34.520;150.798;2022-08-01T01:57:19;100508.28;;;14.92;50.38
63399;BME280;49533;-34.520;150.798;2022-08-01T01:59:48;100505.66;;;14.95;50.11
63399;BME280;49533;-34.520;150.798;2022-08-01T02:02:16;100506.28;;;15.01;49.94
63399;BME280;49533;-34.520;150.798;2022-08-01T02:04:46;100500.13;;;15.04;49.73
63399;BME280;49533;-34.520;150.798;2022-08-01T02:07:24;100493.19;;;15.07;49.78
63399;BME280;49533;-34.520;150.798;2022-08-01T02:09:52;100494.53;;;15.13;49.96
63399;BME280;49533;-34.520;150.798;2022-08-01T02:12:21;100477.44;;;15.16;50.28
63399;BME280;49533;-34.520;150.798;2022-08-01T02:14:50;100481.91;;;15.20;50.45
63399;BME280;49533;-34.520;150.798;2022-08-01T02:17:20;100486.13;;;15.18;50.65
63399;BME280;49533;-34.520;150.798;2022-08-01T02:19:48;100471.41;;;15.10;50.38
63399;BME280;49533;-34.520;150.798;2022-08-01T02:22:46;100475.38;;;15.13;49.85
63399;BME280;49533;-34.520;150.798;2022-08-01T02:25:22;100487.81;;;15.10;50.10
63399;BME280;49533;-34.520;150.798;2022-08-01T02:28:06;100480.75;;;15.09;49.46
63399;BME280;49533;-34.520;150.798;2022-08-01T02:30:36;100472.06;;;15.07;49.34
63399;BME280;49533;-34.520;150.798;2022-08-01T02:33:06;100461.13;;;15.07;49.22
63399;BME280;49533;-34.520;150.798;2022-08-01T02:35:37;100459.06;;;15.04;48.11
63399;BME280;49533;-34.520;150.798;2022-08-01T02:38:10;100465.81;;;15.07;48.41
63399;BME280;49533;-34.520;150.798;2022-08-01T02:40:40;100466.59;;;15.07;47.61
63399;BME280;49533;-34.520;150.798;2022-08-01T02:43:10;100471.28;;;15.07;47.76
63399;BME280;49533;-34.520;150.798;2022-08-01T02:45:43;100474.59;;;15.12;47.72
63399;BME280;49533;-34.520;150.798;2022-08-01T02:48:15;100460.59;;;15.14;47.53
63399;BME280;49533;-34.520;150.798;2022-08-01T02:50:47;100464.59;;;15.16;47.31
63399;BME280;49533;-34.520;150.798;2022-08-01T02:53:17;100461.63;;;15.21;46.88
63399;BME280;49533;-34.520;150.798;2022-08-01T02:55:46;100456.94;;;15.22;46.72
63399;BME280;49533;-34.520;150.798;2022-08-01T02:58:15;100457.06;;;15.26;46.92
63399;BME280;49533;-34.520;150.798;2022-08-01T03:00:45;100447.72;;;15.27;46.92
63399;BME280;49533;-34.520;150.798;2022-08-01T03:03:13;100447.94;;;15.34;47.14
63399;BME280;49533;-34.520;150.798;2022-08-01T03:05:43;100444.97;;;15.39;47.41
63399;BME280;49533;-34.520;150.798;2022-08-01T03:08:12;100442.00;;;15.44;47.69
63399;BME280;49533;-34.520;150.798;2022-08-01T03:10:41;100442.69;;;15.41;47.66
63399;BME280;49533;-34.520;150.798;2022-08-01T03:13:10;100445.09;;;15.42;47.55
63399;BME280;49533;-34.520;150.798;2022-08-01T03:15:39;100464.72;;;15.44;47.48
63399;BME280;49533;-34.520;150.798;2022-08-01T03:18:09;100451.84;;;15.45;47.36
63399;BME280;49533;-34.520;150.798;2022-08-01T03:20:37;100446.69;;;15.43;46.51
63399;BME280;49533;-34.520;150.798;2022-08-01T03:23:10;100452.06;;;15.40;46.06
63399;BME280;49533;-34.520;150.798;2022-08-01T03:25:41;100433.22;;;15.38;45.69
63399;BME280;49533;-34.520;150.798;2022-08-01T03:28:13;100429.38;;;15.39;45.24
63399;BME280;49533;-34.520;150.798;2022-08-01T03:30:41;100433.22;;;15.38;44.84
63399;BME280;49533;-34.520;150.798;2022-08-01T03:33:09;100437.13;;;15.37;44.92
63399;BME280;49533;-34.520;150.798;2022-08-01T03:35:40;100419.53;;;15.38;44.66
63399;BME280;49533;-34.520;150.798;2022-08-01T03:38:10;100404.97;;;15.34;44.49
63399;BME280;49533;-34.520;150.798;2022-08-01T03:40:43;100412.94;;;15.39;44.33
63399;BME280;49533;-34.520;150.798;2022-08-01T03:43:19;100410.53;;;15.38;43.71
63399;BME280;49533;-34.520;150.798;2022-08-01T03:45:50;100408.72;;;15.42;42.93
63399;BME280;49533;-34.520;150.798;2022-08-01T03:48:19;100418.41;;;15.39;43.39
63399;BME280;49533;-34.520;150.798;2022-08-01T03:50:51;100418.75;;;15.38;43.18
63399;BME280;49533;-34.520;150.798;2022-08-01T03:53:23;100419.91;;;15.37;43.50
63399;BME280;49533;-34.520;150.798;2022-08-01T03:55:52;100430.84;;;15.37;43.18
63399;BME280;49533;-34.520;150.798;2022-08-01T03:58:21;100423.75;;;15.36;43.56
63399;BME280;49533;-34.520;150.798;2022-08-01T04:00:48;100413.28;;;15.38;43.21
63399;BME280;49533;-34.520;150.798;2022-08-01T04:03:16;100411.31;;;15.38;43.60
63399;BME280;49533;-34.520;150.798;2022-08-01T04:05:43;100412.59;;;15.41;43.73
63399;BME280;49533;-34.520;150.798;2022-08-01T04:08:11;100403.56;;;15.40;43.93
63399;BME280;49533;-34.520;150.798;2022-08-01T04:10:38;100401.63;;;15.41;43.81
63399;BME280;49533;-34.520;150.798;2022-08-01T04:13:05;100400.16;;;15.43;43.45
63399;BME280;49533;-34.520;150.798;2022-08-01T04:15:32;100396.16;;;15.41;43.11
63399;BME280;49533;-34.520;150.798;2022-08-01T04:17:59;100396.94;;;15.41;43.34
63399;BME280;49533;-34.520;150.798;2022-08-01T04:20:26;100390.69;;;15.41;43.24
63399;BME280;49533;-34.520;150.798;2022-08-01T04:22:53;100386.47;;;15.43;43.43
63399;BME280;49533;-34.520;150.798;2022-08-01T04:25:28;100376.31;;;15.44;43.45
63399;BME280;49533;-34.520;150.798;2022-08-01T04:27:56;100382.94;;;15.43;43.65
63399;BME280;49533;-34.520;150.798;2022-08-01T04:30:29;100384.97;;;15.46;44.08
63399;BME280;49533;-34.520;150.798;2022-08-01T04:33:00;100388.19;;;15.48;44.02
63399;BME280;49533;-34.520;150.798;2022-08-01T04:35:28;100385.91;;;15.50;44.24
63399;BME280;49533;-34.520;150.798;2022-08-01T04:37:56;100379.63;;;15.50;43.41
63399;BME280;49533;-34.520;150.798;2022-08-01T04:40:28;100379.16;;;15.48;43.71
63399;BME280;49533;-34.520;150.798;2022-08-01T04:42:56;100377.22;;;15.48;43.64
63399;BME280;49533;-34.520;150.798;2022-08-01T04:45:24;100382.69;;;15.48;43.72
63399;BME280;49533;-34.520;150.798;2022-08-01T04:47:51;100378.81;;;15.49;43.63
63399;BME280;49533;-34.520;150.798;2022-08-01T04:50:19;100385.09;;;15.50;43.33
63399;BME280;49533;-34.520;150.798;2022-08-01T04:52:48;100366.28;;;15.48;43.39
63399;BME280;49533;-34.520;150.798;2022-08-01T04:55:15;100366.59;;;15.47;43.38
63399;BME280;49533;-34.520;150.798;2022-08-01T04:57:45;100376.75;;;15.46;43.41
63399;BME280;49533;-34.520;150.798;2022-08-01T05:00:13;100385.75;;;15.47;43.31
63399;BME280;49533;-34.520;150.798;2022-08-01T05:02:42;100377.91;;;15.45;43.34
63399;BME280;49533;-34.520;150.798;2022-08-01T05:05:10;100390.44;;;15.46;43.14
63399;BME280;49533;-34.520;150.798;2022-08-01T05:07:37;100399.91;;;15.49;43.32
63399;BME280;49533;-34.520;150.798;2022-08-01T05:10:05;100404.59;;;15.48;43.38
63399;BME280;49533;-34.520;150.798;2022-08-01T05:12:32;100410.09;;;15.48;43.48
63399;BME280;49533;-34.520;150.798;2022-08-01T05:14:59;100403.00;;;15.47;43.24
63399;BME280;49533;-34.520;150.798;2022-08-01T05:17:26;100405.28;;;15.45;43.39
63399;BME280;49533;-34.520;150.798;2022-08-01T05:19:53;100407.56;;;15.43;42.63
63399;BME280;49533;-34.520;150.798;2022-08-01T05:22:20;100393.41;;;15.41;42.28
63399;BME280;49533;-34.520;150.798;2022-08-01T05:24:48;100394.22;;;15.41;42.23
63399;BME280;49533;-34.520;150.798;2022-08-01T05:27:15;100386.34;;;15.40;41.42
63399;BME280;49533;-34.520;150.798;2022-08-01T05:29:42;100398.78;;;15.37;42.03
63399;BME280;49533;-34.520;150.798;2022-08-01T05:32:10;100388.16;;;15.36;42.36
63399;BME280;49533;-34.520;150.798;2022-08-01T05:34:37;100389.31;;;15.35;42.72
63399;BME280;49533;-34.520;150.798;2022-08-01T05:37:04;100400.59;;;15.33;42.82
63399;BME280;49533;-34.520;150.798;2022-08-01T05:39:31;100385.34;;;15.32;43.04
63399;BME280;49533;-34.520;150.798;2022-08-01T05:41:58;100397.41;;;15.31;43.09
63399;BME280;49533;-34.520;150.798;2022-08-01T05:44:25;100400.16;;;15.31;43.25
63399;BME280;49533;-34.520;150.798;2022-08-01T05:46:52;100419.31;;;15.31;43.30
63399;BME280;49533;-34.520;150.798;2022-08-01T05:49:19;100407.91;;;15.29;43.54
63399;BME280;49533;-34.520;150.798;2022-08-01T05:51:46;100425.13;;;15.30;43.73
63399;BME280;49533;-34.520;150.798;2022-08-01T05:54:13;100417.25;;;15.28;43.86
63399;BME280;49533;-34.520;150.798;2022-08-01T05:56:40;100419.19;;;15.28;44.12
63399;BME280;49533;-34.520;150.798;2022-08-01T05:59:07;100433.91;;;15.35;43.45
63399;BME280;49533;-34.520;150.798;2022-08-01T06:01:34;100438.00;;;15.41;43.43
63399;BME280;49533;-34.520;150.798;2022-08-01T06:04:01;100427.19;;;15.45;43.63
63399;BME280;49533;-34.520;150.798;2022-08-01T06:06:28;100426.41;;;15.44;43.35
63399;BME280;49533;-34.520;150.798;2022-08-01T06:08:55;100441.34;;;15.47;43.59
63399;BME280;49533;-34.520;150.798;2022-08-01T06:11:22;100427.66;;;15.47;43.79
63399;BME280;49533;-34.520;150.798;2022-08-01T06:13:50;100438.72;;;15.51;43.90
63399;BME280;49533;-34.520;150.798;2022-08-01T06:16:17;100434.50;;;15.53;43.43
63399;BME280;49533;-34.520;150.798;2022-08-01T06:18:44;100426.06;;;15.58;43.37
63399;BME280;49533;-34.520;150.798;2022-08-01T06:21:11;100432.44;;;15.62;43.72
63399;BME280;49533;-34.520;150.798;2022-08-01T06:23:38;100432.88;;;15.64;44.02
63399;BME280;49533;-34.520;150.798;2022-08-01T06:26:06;100437.22;;;15.65;44.26
63399;BME280;49533;-34.520;150.798;2022-08-01T06:28:33;100432.09;;;15.64;44.51
63399;BME280;49533;-34.520;150.798;2022-08-01T06:31:00;100431.75;;;15.65;44.50
63399;BME280;49533;-34.520;150.798;2022-08-01T06:33:27;100434.13;;;15.67;44.38
63399;BME280;49533;-34.520;150.798;2022-08-01T06:35:55;100443.16;;;15.68;44.57
63399;BME280;49533;-34.520;150.798;2022-08-01T06:38:22;100437.69;;;15.68;44.43
63399;BME280;49533;-34.520;150.798;2022-08-01T06:40:50;100439.63;;;15.67;44.19
63399;BME280;49533;-34.520;150.798;2022-08-01T06:43:17;100454.47;;;15.66;44.49
63399;BME280;49533;-34.520;150.798;2022-08-01T06:45:45;100445.44;;;15.65;44.23
63399;BME280;49533;-34.520;150.798;2022-08-01T06:48:12;100444.66;;;15.65;44.55
63399;BME280;49533;-34.520;150.798;2022-08-01T06:50:40;100450.13;;;15.65;44.44
63399;BME280;49533;-34.520;150.798;2022-08-01T06:53:07;100454.78;;;15.64;44.30
63399;BME280;49533;-34.520;150.798;2022-08-01T06:55:34;100461.09;;;15.65;44.49
63399;BME280;49533;-34.520;150.798;2022-08-01T06:58:01;100467.34;;;15.65;44.51
63399;BME280;49533;-34.520;150.798;2022-08-01T07:00:28;100466.56;;;15.65;44.44
63399;BME280;49533;-34.520;150.798;2022-08-01T07:02:56;100475.91;;;15.64;44.49
63399;BME280;49533;-34.520;150.798;2022-08-01T07:05:25;100475.13;;;15.63;44.57
63399;BME280;49533;-34.520;150.798;2022-08-01T07:07:52;100470.31;;;15.60;44.85
63399;BME280;49533;-34.520;150.798;2022-08-01T07:10:19;100478.53;;;15.60;44.72
63399;BME280;49533;-34.520;150.798;2022-08-01T07:12:46;100484.03;;;15.60;44.38
63399;BME280;49533;-34.520;150.798;2022-08-01T07:15:13;100480.34;;;15.56;44.98
63399;BME280;49533;-34.520;150.798;2022-08-01T07:17:42;100471.34;;;15.56;44.59
63399;BME280;49533;-34.520;150.798;2022-08-01T07:20:11;100467.81;;;15.55;44.40
63399;BME280;49533;-34.520;150.798;2022-08-01T07:22:39;100483.00;;;15.53;44.29
63399;BME280;49533;-34.520;150.798;2022-08-01T07:25:06;100475.09;;;15.51;44.29
63399;BME280;49533;-34.520;150.798;2022-08-01T07:27:34;100484.47;;;15.50;44.32
63399;BME280;49533;-34.520;150.798;2022-08-01T07:30:02;100486.06;;;15.51;44.69
63399;BME280;49533;-34.520;150.798;2022-08-01T07:32:30;100499.75;;;15.51;44.71
63399;BME280;49533;-34.520;150.798;2022-08-01T07:34:57;100507.84;;;15.48;44.71
63399;BME280;49533;-34.520;150.798;2022-08-01T07:37:24;100499.97;;;15.46;44.73
63399;BME280;49533;-34.520;150.798;2022-08-01T07:39:51;100513.19;;;15.44;44.72
63399;BME280;49533;-34.520;150.798;2022-08-01T07:42:18;100524.16;;;15.44;44.72
63399;BME280;49533;-34.520;150.798;2022-08-01T07:44:45;100510.81;;;15.42;44.18
63399;BME280;49533;-34.520;150.798;2022-08-01T07:47:12;100512.75;;;15.42;44.13
63399;BME280;49533;-34.520;150.798;2022-08-01T07:49:39;100509.56;;;15.40;44.68
63399;BME280;49533;-34.520;150.798;2022-08-01T07:52:07;100513.09;;;15.40;44.58
63399;BME280;49533;-34.520;150.798;2022-08-01T07:54:34;100509.09;;;15.38;44.74
63399;BME280;49533;-34.520;150.798;2022-08-01T07:57:02;100509.09;;;15.38;44.41
63399;BME280;49533;-34.520;150.798;2022-08-01T07:59:30;100525.03;;;15.36;44.81
63399;BME280;49533;-34.520;150.798;2022-08-01T08:01:57;100520.72;;;15.35;44.79
63399;BME280;49533;-34.520;150.798;2022-08-01T08:04:25;100515.94;;;15.32;44.64
63399;BME280;49533;-34.520;150.798;2022-08-01T08:06:52;100525.25;;;15.31;44.72
63399;BME280;49533;-34.520;150.798;2022-08-01T08:09:19;100546.69;;;15.29;44.85
63399;BME280;49533;-34.520;150.798;2022-08-01T08:11:47;100547.84;;;15.28;44.90
63399;BME280;49533;-34.520;150.798;2022-08-01T08:14:14;100541.56;;;15.27;44.79
63399;BME280;49533;-34.520;150.798;2022-08-01T08:16:42;100545.78;;;15.25;44.78
63399;BME280;49533;-34.520;150.798;2022-08-01T08:19:10;100554.31;;;15.23;44.78
63399;BME280;49533;-34.520;150.798;2022-08-01T08:21:38;100558.53;;;15.20;44.83
63399;BME280;49533;-34.520;150.798;2022-08-01T08:24:06;100547.13;;;15.18;43.97
63399;BME280;49533;-34.520;150.798;2022-08-01T08:26:55;100559.53;;;15.16;44.38
63399;BME280;49533;-34.520;150.798;2022-08-01T08:29:23;100559.53;;;15.16;44.77
63399;BME280;49533;-34.520;150.798;2022-08-01T08:31:53;100552.81;;;15.13;44.77
63399;BME280;49533;-34.520;150.798;2022-08-01T08:34:23;100564.91;;;15.12;44.75
63399;BME280;49533;-34.520;150.798;2022-08-01T08:36:51;100557.69;;;15.08;43.85
63399;BME280;49533;-34.520;150.798;2022-08-01T08:39:18;100555.63;;;15.05;43.73
63399;BME280;49533;-34.520;150.798;2022-08-01T08:41:46;100571.72;;;15.06;44.31
63399;BME280;49533;-34.520;150.798;2022-08-01T08:44:13;100571.25;;;15.04;43.67
63399;BME280;49533;-34.520;150.798;2022-08-01T08:46:43;100562.59;;;15.02;43.99
63399;BME280;49533;-34.520;150.798;2022-08-01T08:49:12;100558.09;;;14.97;43.59
63399;BME280;49533;-34.520;150.798;2022-08-01T08:51:41;100578.88;;;14.98;44.20
63399;BME280;49533;-34.520;150.798;2022-08-01T08:54:11;100576.00;;;14.95;43.76
63399;BME280;49533;-34.520;150.798;2022-08-01T08:56:42;100563.66;;;14.89;43.89
63399;BME280;49533;-34.520;150.798;2022-08-01T08:59:11;100560.94;;;14.89;43.63
63399;BME280;49533;-34.520;150.798;2022-08-01T09:01:43;100571.41;;;14.87;43.65
63399;BME280;49533;-34.520;150.798;2022-08-01T09:04:11;100571.41;;;14.87;44.07
63399;BME280;49533;-34.520;150.798;2022-08-01T09:06:38;100580.75;;;14.86;44.11
63399;BME280;49533;-34.520;150.798;2022-08-01T09:09:07;100585.28;;;14.82;43.77
63399;BME280;49533;-34.520;150.798;2022-08-01T09:11:35;100589.97;;;14.81;43.77
63399;BME280;49533;-34.520;150.798;2022-08-01T09:14:06;100584.34;;;14.77;43.55
63399;BME280;49533;-34.520;150.798;2022-08-01T09:16:34;100595.28;;;14.77;43.85
63399;BME280;49533;-34.520;150.798;2022-08-01T09:19:15;100592.09;;;14.75;43.90
63399;BME280;49533;-34.520;150.798;2022-08-01T09:22:04;100605.44;;;14.77;44.31
63399;BME280;49533;-34.520;150.798;2022-08-01T09:24:32;100599.84;;;14.73;44.09
63399;BME280;49533;-34.520;150.798;2022-08-01T09:27:01;100596.63;;;14.71;44.08
63399;BME280;49533;-34.520;150.798;2022-08-01T09:29:42;100620.75;;;14.69;44.44
63399;BME280;49533;-34.520;150.798;2022-08-01T09:32:11;100612.75;;;14.64;44.03
63399;BME280;49533;-34.520;150.798;2022-08-01T09:34:38;100617.75;;;14.62;43.92
63399;BME280;49533;-34.520;150.798;2022-08-01T09:37:05;100615.00;;;14.62;44.17
63399;BME280;49533;-34.520;150.798;2022-08-01T09:39:35;100627.09;;;14.61;44.47
63399;BME280;49533;-34.520;150.798;2022-08-01T09:42:22;100620.97;;;14.64;44.64
63399;BME280;49533;-34.520;150.798;2022-08-01T09:44:50;100625.81;;;14.59;44.11
63399;BME280;49533;-34.520;150.798;2022-08-01T09:47:19;100617.81;;;14.53;44.25
63399;BME280;49533;-34.520;150.798;2022-08-01T09:49:56;100629.38;;;14.50;44.28
63399;BME280;49533;-34.520;150.798;2022-08-01T09:52:27;100634.22;;;14.53;44.65
63399;BME280;49533;-34.520;150.798;2022-08-01T09:54:59;100621.34;;;14.54;44.64
63399;BME280;49533;-34.520;150.798;2022-08-01T09:57:27;100643.06;;;14.50;44.62
63399;BME280;49533;-34.520;150.798;2022-08-01T09:59:57;100636.78;;;14.50;44.82
63399;BME280;49533;-34.520;150.798;2022-08-01T10:04:55;100638.44;;;14.42;44.39
63399;BME280;49533;-34.520;150.798;2022-08-01T10:07:22;100642.28;;;14.41;44.21
63399;BME280;49533;-34.520;150.798;2022-08-01T10:09:49;100641.69;;;14.35;44.08
63399;BME280;49533;-34.520;150.798;2022-08-01T10:12:19;100643.28;;;14.36;44.48
63399;BME280;49533;-34.520;150.798;2022-08-01T10:14:48;100639.63;;;14.32;44.15
63399;BME280;49533;-34.520;150.798;2022-08-01T10:17:17;100644.28;;;14.32;44.26
63399;BME280;49533;-34.520;150.798;2022-08-01T10:19:45;100636.72;;;14.29;44.41
63399;BME280;49533;-34.520;150.798;2022-08-01T10:22:14;100641.75;;;14.27;44.37
63399;BME280;49533;-34.520;150.798;2022-08-01T10:24:46;100627.59;;;14.25;44.24
63399;BME280;49533;-34.520;150.798;2022-08-01T10:27:16;100629.19;;;14.26;44.75
63399;BME280;49533;-34.520;150.798;2022-08-01T10:32:17;100618.13;;;14.22;44.55
63399;BME280;49533;-34.520;150.798;2022-08-01T10:34:46;100622.63;;;14.18;44.48
63399;BME280;49533;-34.520;150.798;2022-08-01T10:37:13;100631.63;;;14.19;44.63
63399;BME280;49533;-34.520;150.798;2022-08-01T10:39:41;100619.78;;;14.14;44.36
63399;BME280;49533;-34.520;150.798;2022-08-01T10:42:11;100631.00;;;14.13;44.64
63399;BME280;49533;-34.520;150.798;2022-08-01T10:44:39;100627.81;;;14.11;44.61
63399;BME280;49533;-34.520;150.798;2022-08-01T10:47:10;100622.34;;;14.11;44.74
63399;BME280;49533;-34.520;150.798;2022-08-01T10:49:49;100637.13;;;14.10;44.77
63399;BME280;49533;-34.520;150.798;2022-08-01T10:52:18;100630.72;;;14.06;44.58
63399;BME280;49533;-34.520;150.798;2022-08-01T10:54:46;100634.59;;;14.05;44.76
63399;BME280;49533;-34.520;150.798;2022-08-01T10:57:13;100622.69;;;14.01;44.71
63399;BME280;49533;-34.520;150.798;2022-08-01T10:59:51;100641.38;;;13.99;44.58
63399;BME280;49533;-34.520;150.798;2022-08-01T11:02:31;100636.53;;;13.96;44.37
63399;BME280;49533;-34.520;150.798;2022-08-01T11:05:07;100646.66;;;13.95;44.54
63399;BME280;49533;-34.520;150.798;2022-08-01T11:08:03;100651.34;;;13.95;44.97
63399;BME280;49533;-34.520;150.798;2022-08-01T11:13:02;100654.25;;;13.89;44.36
63399;BME280;49533;-34.520;150.798;2022-08-01T11:15:34;100655.84;;;13.90;44.69
63399;BME280;49533;-34.520;150.798;2022-08-01T11:18:03;100666.75;;;13.90;44.84
63399;BME280;49533;-34.520;150.798;2022-08-01T11:20:33;100670.16;;;13.87;44.57
63399;BME280;49533;-34.520;150.798;2022-08-01T11:30:52;100665.53;;;13.79;44.54
63399;BME280;49533;-34.520;150.798;2022-08-01T11:38:44;100668.72;;;13.81;45.14
63399;BME280;49533;-34.520;150.798;2022-08-01T11:44:01;100671.47;;;13.81;45.92
63399;BME280;49533;-34.520;150.798;2022-08-01T11:49:31;100670.84;;;13.76;45.54
63399;BME280;49533;-34.520;150.798;2022-08-01T11:54:40;100677.75;;;13.73;45.43
63399;BME280;49533;-34.520;150.798;2022-08-01T11:57:15;100672.28;;;13.73;45.69
63399;BME280;49533;-34.520;150.798;2022-08-01T11:59:50;100676.47;;;13.70;45.90
63399;BME280;49533;-34.520;150.798;2022-08-01T12:02:18;100678.38;;;13.70;45.86
63399;BME280;49533;-34.520;150.798;2022-08-01T12:07:17;100679.50;;;13.69;45.93
63399;BME280;49533;-34.520;150.798;2022-08-01T12:09:45;100677.44;;;13.66;45.86
63399;BME280;49533;-34.520;150.798;2022-08-01T12:12:16;100678.88;;;13.63;46.09
63399;BME280;49533;-34.520;150.798;2022-08-01T12:14:45;100682.72;;;13.62;46.22
63399;BME280;49533;-34.520;150.798;2022-08-01T12:17:13;100681.44;;;13.60;46.07
63399;BME280;49533;-34.520;150.798;2022-08-01T12:19:40;100674.38;;;13.59;46.10
63399;BME280;49533;-34.520;150.798;2022-08-01T12:24:38;100684.81;;;13.57;46.00
63399;BME280;49533;-34.520;150.798;2022-08-01T12:27:06;100685.16;;;13.55;46.32
63399;BME280;49533;-34.520;150.798;2022-08-01T12:29:42;100680.81;;;13.54;46.18
63399;BME280;49533;-34.520;150.798;2022-08-01T12:32:33;100679.22;;;13.53;46.22
63399;BME280;49533;-34.520;150.798;2022-08-01T12:35:04;100692.06;;;13.53;46.27
63399;BME280;49533;-34.520;150.798;2022-08-01T12:37:39;100684.50;;;13.49;46.36
63399;BME280;49533;-34.520;150.798;2022-08-01T12:42:44;100687.41;;;13.44;46.30
63399;BME280;49533;-34.520;150.798;2022-08-01T12:45:14;100683.56;;;13.45;46.48
63399;BME280;49533;-34.520;150.798;2022-08-01T12:47:42;100689.03;;;13.45;46.21
63399;BME280;49533;-34.520;150.798;2022-08-01T12:50:19;100688.06;;;13.41;46.29
63399;BME280;49533;-34.520;150.798;2022-08-01T12:52:47;100684.84;;;13.39;46.46
63399;BME280;49533;-34.520;150.798;2022-08-01T12:57:49;100680.81;;;13.37;46.72
63399;BME280;49533;-34.520;150.798;2022-08-01T13:00:18;100678.44;;;13.35;46.71
63399;BME280;49533;-34.520;150.798;2022-08-01T13:02:47;100672.97;;;13.35;46.62
63399;BME280;49533;-34.520;150.798;2022-08-01T13:05:16;100679.53;;;13.34;46.83
63399;BME280;49533;-34.520;150.798;2022-08-01T13:07:48;100677.47;;;13.31;46.75
63399;BME280;49533;-34.520;150.798;2022-08-01T13:10:27;100672.00;;;13.31;46.54
63399;BME280;49533;-34.520;150.798;2022-08-01T13:12:57;100685.16;;;13.29;46.80
63399;BME280;49533;-34.520;150.798;2022-08-01T13:15:36;100676.50;;;13.27;47.04
63399;BME280;49533;-34.520;150.798;2022-08-01T13:18:26;100680.31;;;13.26;46.93
63399;BME280;49533;-34.520;150.798;2022-08-01T13:21:23;100684.97;;;13.25;46.92